createdAt,value
2023-02-11T00:00:33.123Z,3.28
2023-02-11T00:02:59.455Z,3.26
2023-02-11T00:05:25.829Z,3.18
2023-02-11T00:07:52.074Z,3.00
2023-02-11T00:10:18.349Z,2.82
2023-02-11T00:12:44.611Z,2.88
2023-02-11T00:15:11.066Z,3.21
2023-02-11T00:17:37.345Z,2.96
2023-02-11T00:20:05.474Z,2.78
2023-02-11T00:22:33.606Z,2.78
2023-02-11T00:24:59.929Z,2.96
2023-02-11T00:27:26.140Z,2.79
2023-02-11T00:29:52.590Z,2.97
2023-02-11T00:32:19.011Z,2.99
2023-02-11T00:34:45.271Z,3.01
2023-02-11T00:37:12.982Z,3.01
2023-02-11T00:39:39.249Z,2.99
2023-02-11T00:42:05.542Z,3.02
2023-02-11T00:44:31.778Z,3.12
2023-02-11T00:46:58.051Z,3.24
2023-02-11T00:49:24.757Z,3.09
2023-02-11T00:51:51.048Z,2.85
2023-02-11T00:54:17.328Z,2.67
2023-02-11T00:56:43.560Z,3.01
2023-02-11T00:59:09.917Z,3.07
2023-02-11T01:01:36.409Z,2.80
2023-02-11T01:04:02.840Z,3.09
2023-02-11T01:06:29.122Z,3.02
2023-02-11T01:08:55.402Z,3.10
2023-02-11T01:11:22.343Z,2.85
2023-02-11T01:13:49.729Z,3.02
2023-02-11T01:16:17.749Z,3.28
2023-02-11T01:18:44.153Z,2.86
2023-02-11T01:21:10.737Z,2.50
2023-02-11T01:23:37.000Z,3.49
2023-02-11T01:26:03.438Z,1.72
2023-02-11T01:28:30.418Z,3.32
2023-02-11T01:30:56.888Z,3.08
2023-02-11T01:33:23.867Z,3.70
2023-02-11T01:35:50.856Z,3.42
2023-02-11T01:38:20.935Z,1.95
2023-02-11T01:40:53.594Z,3.74
2023-02-11T01:43:20.807Z,3.76
2023-02-11T01:45:53.538Z,3.58
2023-02-11T01:48:25.066Z,3.17
2023-02-11T01:50:54.958Z,2.29
2023-02-11T01:53:39.869Z,3.68
2023-02-11T01:56:25.798Z,2.86
2023-02-11T01:58:53.272Z,3.59
2023-02-11T02:01:23.306Z,3.32
2023-02-11T02:03:52.008Z,3.54
2023-02-11T02:06:24.573Z,3.40
2023-02-11T02:08:54.484Z,3.38
2023-02-11T02:11:20.828Z,3.61
2023-02-11T02:13:47.048Z,3.23
2023-02-11T02:16:15.091Z,2.75
2023-02-11T02:19:02.597Z,3.60
2023-02-11T02:21:59.143Z,3.50
2023-02-11T02:24:50.472Z,3.54
2023-02-11T02:27:24.352Z,3.34
2023-02-11T02:30:05.636Z,3.54
2023-02-11T02:32:51.882Z,3.38
2023-02-11T02:35:25.007Z,3.21
2023-02-11T02:37:56.574Z,2.02
2023-02-11T02:40:30.651Z,3.33
2023-02-11T02:42:57.274Z,2.62
2023-02-11T02:45:23.631Z,3.56
2023-02-11T02:47:49.698Z,3.58
2023-02-11T02:50:20.508Z,3.77
2023-02-11T02:52:49.274Z,3.68
2023-02-11T02:56:00.543Z,3.40
2023-02-11T02:58:41.653Z,3.81
2023-02-11T03:01:13.717Z,3.53
2023-02-11T03:04:06.130Z,3.51
2023-02-11T03:06:53.490Z,3.55
2023-02-11T03:09:34.282Z,1.55
2023-02-11T03:12:01.598Z,3.58
2023-02-11T03:14:29.746Z,3.58
2023-02-11T03:16:58.014Z,3.48
2023-02-11T03:19:32.850Z,3.49
2023-02-11T03:21:59.208Z,3.44
2023-02-11T03:24:32.876Z,3.72
2023-02-11T03:27:29.128Z,3.89
2023-02-11T03:30:18.047Z,3.97
2023-02-11T03:32:58.483Z,3.78
2023-02-11T03:35:32.723Z,3.71
2023-02-11T03:38:05.573Z,3.78
2023-02-11T03:40:36.616Z,3.90
2023-02-11T03:43:08.367Z,3.96
2023-02-11T03:45:35.928Z,3.81
2023-02-11T03:48:15.526Z,4.09
2023-02-11T03:50:42.656Z,3.85
2023-02-11T03:53:09.243Z,3.57
2023-02-11T03:55:38.036Z,3.34
2023-02-11T03:58:04.221Z,3.27
2023-02-11T04:00:31.642Z,3.62
2023-02-11T04:02:57.748Z,3.69
2023-02-11T04:05:23.829Z,3.58
2023-02-11T04:07:49.905Z,3.66
2023-02-11T04:10:16.134Z,3.66
2023-02-11T04:12:42.189Z,3.53
2023-02-11T04:15:08.475Z,3.47
2023-02-11T04:17:34.644Z,3.25
2023-02-11T04:20:00.973Z,3.72
2023-02-11T04:22:27.092Z,3.63
2023-02-11T04:24:53.147Z,3.45
2023-02-11T04:27:19.189Z,2.76
2023-02-11T04:29:45.248Z,3.61
2023-02-11T04:32:11.666Z,3.58
2023-02-11T04:34:37.913Z,3.41
2023-02-11T04:37:04.139Z,3.59
2023-02-11T04:39:30.222Z,3.52
2023-02-11T04:41:56.271Z,3.55
2023-02-11T04:44:22.461Z,2.82
2023-02-11T04:46:48.547Z,2.41
2023-02-11T04:49:15.440Z,3.58
2023-02-11T04:51:41.689Z,3.83
2023-02-11T04:54:08.127Z,1.98
2023-02-11T04:56:34.199Z,3.76
2023-02-11T04:59:00.270Z,3.49
2023-02-11T05:01:26.495Z,3.70
2023-02-11T05:03:52.684Z,3.60
2023-02-11T05:06:18.823Z,3.67
2023-02-11T05:08:44.951Z,3.24
2023-02-11T05:11:16.809Z,3.61
2023-02-11T05:13:43.108Z,3.54
2023-02-11T05:16:10.733Z,3.57
2023-02-11T05:18:37.836Z,3.73
2023-02-11T05:21:08.401Z,3.68
2023-02-11T05:23:34.839Z,3.63
2023-02-11T05:26:01.416Z,2.87
2023-02-11T05:28:28.228Z,2.25
2023-02-11T05:30:54.826Z,3.59
2023-02-11T05:33:20.974Z,3.49
2023-02-11T05:35:47.024Z,3.61
2023-02-11T05:38:13.329Z,3.52
2023-02-11T05:40:39.613Z,3.52
2023-02-11T05:43:05.864Z,1.84
2023-02-11T05:45:32.408Z,3.64
2023-02-11T05:47:58.760Z,3.62
2023-02-11T05:50:24.965Z,3.65
2023-02-11T05:52:51.146Z,3.65
2023-02-11T05:55:17.506Z,3.59
2023-02-11T05:57:43.619Z,3.83
2023-02-11T06:00:10.536Z,3.90
2023-02-11T06:02:36.664Z,3.91
2023-02-11T06:05:02.767Z,2.72
2023-02-11T06:07:28.889Z,3.91
2023-02-11T06:09:54.950Z,3.97
2023-02-11T06:12:21.035Z,3.90
2023-02-11T06:14:47.126Z,3.86
2023-02-11T06:17:15.601Z,4.12
2023-02-11T06:19:41.939Z,3.98
2023-02-11T06:22:08.258Z,4.03
2023-02-11T06:24:58.503Z,4.11
2023-02-11T06:27:20.562Z,2.41
2023-02-11T06:29:47.105Z,3.86
2023-02-11T06:32:36.960Z,3.98
2023-02-11T06:34:59.942Z,4.04
2023-02-11T06:37:26.054Z,4.12
2023-02-11T06:39:52.124Z,3.97
2023-02-11T06:42:18.177Z,3.96
2023-02-11T06:44:44.230Z,4.10
2023-02-11T06:47:10.400Z,4.04
2023-02-11T06:49:36.484Z,3.83
2023-02-11T06:52:02.826Z,4.04
2023-02-11T06:54:28.855Z,3.82
2023-02-11T06:56:54.902Z,4.08
2023-02-11T06:59:20.970Z,4.07
2023-02-11T07:01:47.289Z,4.18
2023-02-11T07:04:16.514Z,4.19
2023-02-11T07:06:42.691Z,2.43
2023-02-11T07:09:08.861Z,4.15
2023-02-11T07:11:34.975Z,3.89
2023-02-11T07:14:07.681Z,3.93
2023-02-11T07:16:34.402Z,4.07
2023-02-11T07:19:00.645Z,1.82
2023-02-11T07:21:26.890Z,4.15
2023-02-11T07:23:53.241Z,4.08
2023-02-11T07:26:22.565Z,3.17
2023-02-11T07:28:49.765Z,2.30
2023-02-11T07:31:19.096Z,3.91
2023-02-11T07:33:45.632Z,2.96
2023-02-11T07:36:13.941Z,3.77
2023-02-11T07:38:40.068Z,3.87
2023-02-11T07:41:08.744Z,3.15
2023-02-11T07:43:35.483Z,4.00
2023-02-11T07:46:09.972Z,4.16
2023-02-11T07:48:36.346Z,3.74
2023-02-11T07:51:11.267Z,-0.14
2023-02-11T07:53:37.803Z,4.36
2023-02-11T07:56:04.965Z,4.26
2023-02-11T07:58:31.452Z,4.31
2023-02-11T08:01:02.545Z,4.29
2023-02-11T08:03:28.852Z,4.33
2023-02-11T08:05:55.099Z,4.19
2023-02-11T08:08:21.177Z,4.20
2023-02-11T08:10:47.300Z,4.09
2023-02-11T08:13:13.378Z,4.17
2023-02-11T08:15:39.507Z,3.95
2023-02-11T08:18:05.568Z,4.43
2023-02-11T08:20:31.667Z,4.47
2023-02-11T08:22:57.696Z,3.94
2023-02-11T08:25:23.748Z,4.32
2023-02-11T08:27:49.785Z,4.25
2023-02-11T08:30:15.873Z,4.34
2023-02-11T08:32:41.960Z,4.69
2023-02-11T08:35:08.733Z,3.99
2023-02-11T08:37:34.932Z,4.36
2023-02-11T08:40:01.008Z,4.42
2023-02-11T08:42:27.027Z,4.56
2023-02-11T08:44:53.065Z,4.49
2023-02-11T08:47:19.135Z,4.39
2023-02-11T08:49:45.248Z,4.52
2023-02-11T08:52:11.455Z,4.56
2023-02-11T08:54:37.653Z,4.45
2023-02-11T08:57:04.159Z,4.55
2023-02-11T08:59:30.443Z,4.37
2023-02-11T09:01:57.376Z,2.63
2023-02-11T09:04:23.543Z,4.48
2023-02-11T09:06:49.701Z,3.87
2023-02-11T09:09:16.062Z,4.28
2023-02-11T09:11:43.458Z,4.39
2023-02-11T09:14:17.644Z,4.34
2023-02-11T09:16:43.912Z,4.42
2023-02-11T09:19:10.420Z,2.83
2023-02-11T09:21:36.543Z,4.47
2023-02-11T09:24:02.930Z,4.52
2023-02-11T09:26:31.573Z,4.65
2023-02-11T09:28:58.167Z,4.19
2023-02-11T09:31:26.052Z,4.52
2023-02-11T09:33:54.955Z,4.70
2023-02-11T09:36:23.304Z,5.04
2023-02-11T09:38:50.980Z,4.33
2023-02-11T09:41:23.128Z,4.91
2023-02-11T09:43:56.888Z,4.84
2023-02-11T09:46:24.088Z,5.15
2023-02-11T09:48:52.034Z,5.17
2023-02-11T09:51:33.399Z,5.58
2023-02-11T09:54:05.620Z,5.30
2023-02-11T09:56:31.834Z,5.45
2023-02-11T09:58:57.921Z,5.56
2023-02-11T10:01:52.958Z,5.65
2023-02-11T10:04:34.357Z,5.71
2023-02-11T10:07:21.544Z,6.01
2023-02-11T10:10:21.785Z,5.89
2023-02-11T10:13:25.881Z,5.85
2023-02-11T10:16:16.567Z,5.27
2023-02-11T10:18:56.768Z,5.89
2023-02-11T10:21:31.923Z,6.05
2023-02-11T10:24:01.235Z,6.05
2023-02-11T10:26:30.240Z,6.02
2023-02-11T10:28:59.366Z,6.10
2023-02-11T10:31:28.685Z,5.12
2023-02-11T10:34:01.234Z,5.85
2023-02-11T10:36:29.838Z,5.86
2023-02-11T10:39:01.803Z,5.88
2023-02-11T10:41:34.023Z,5.76
2023-02-11T10:44:00.915Z,5.73
2023-02-11T10:46:30.917Z,5.78
2023-02-11T10:48:57.195Z,5.71
2023-02-11T10:51:23.400Z,5.69
2023-02-11T10:54:13.982Z,5.68
2023-02-11T10:56:45.427Z,5.70
2023-02-11T10:59:27.756Z,5.56
2023-02-11T11:01:59.847Z,5.69
2023-02-11T11:04:29.117Z,5.75
2023-02-11T11:06:56.346Z,5.77
2023-02-11T11:09:31.985Z,5.92
2023-02-11T11:11:58.100Z,5.97
2023-02-11T11:14:28.231Z,4.67
2023-02-11T11:16:54.964Z,6.11
2023-02-11T11:19:25.141Z,5.93
2023-02-11T11:21:53.354Z,5.92
2023-02-11T11:24:40.935Z,6.09
2023-02-11T11:27:08.699Z,5.59
2023-02-11T11:29:37.749Z,6.11
2023-02-11T11:32:24.093Z,5.96
2023-02-11T11:35:02.935Z,6.09
2023-02-11T11:37:31.139Z,6.12
2023-02-11T11:40:00.316Z,6.14
2023-02-11T11:42:29.236Z,6.27
2023-02-11T11:45:18.828Z,6.13
2023-02-11T11:47:48.554Z,6.40
2023-02-11T11:50:37.190Z,6.49
2023-02-11T11:53:07.099Z,6.12
2023-02-11T11:55:36.093Z,6.39
2023-02-11T11:58:02.311Z,6.56
2023-02-11T12:00:43.640Z,6.54
2023-02-11T12:03:28.468Z,6.40
2023-02-11T12:06:07.305Z,6.54
2023-02-11T12:08:44.017Z,5.53
2023-02-11T12:11:48.108Z,6.45
2023-02-11T12:14:39.111Z,6.28
2023-02-11T12:17:18.780Z,6.50
2023-02-11T12:20:12.120Z,6.49
2023-02-11T12:23:00.590Z,6.33
2023-02-11T12:25:30.156Z,6.32
2023-02-11T12:28:00.931Z,6.26
2023-02-11T12:30:45.094Z,6.53
2023-02-11T12:33:15.703Z,6.45
2023-02-11T12:35:44.689Z,6.48
2023-02-11T12:38:19.027Z,6.63
2023-02-11T12:40:54.714Z,6.46
2023-02-11T12:43:23.535Z,6.66
2023-02-11T12:46:11.722Z,6.48
2023-02-11T12:48:43.606Z,6.22
2023-02-11T12:51:40.784Z,6.36
2023-02-11T12:54:10.235Z,6.63
2023-02-11T12:56:50.309Z,6.44
2023-02-11T12:59:39.681Z,6.76
2023-02-11T13:02:19.679Z,6.48
2023-02-11T13:04:51.910Z,6.81
2023-02-11T13:07:27.470Z,6.71
2023-02-11T13:10:06.994Z,6.71
2023-02-11T13:12:53.567Z,6.80
2023-02-11T13:15:19.636Z,6.88
2023-02-11T13:17:52.683Z,6.99
2023-02-11T13:20:27.393Z,7.11
2023-02-11T13:23:01.031Z,7.14
2023-02-11T13:25:37.622Z,-15.85
2023-02-11T13:28:16.587Z,6.99
2023-02-11T13:30:50.808Z,3.06
2023-02-11T13:33:20.475Z,7.12
2023-02-11T13:35:55.629Z,7.14
2023-02-11T13:38:27.188Z,7.26
2023-02-11T13:41:01.390Z,7.39
2023-02-11T13:43:28.387Z,7.28
2023-02-11T13:46:03.711Z,7.02
2023-02-11T13:48:34.129Z,7.03
2023-02-11T13:51:03.109Z,7.27
2023-02-11T13:53:29.970Z,7.31
2023-02-11T13:56:11.551Z,7.35
2023-02-11T13:58:47.466Z,6.74
2023-02-11T14:01:41.830Z,3.21
2023-02-11T14:04:43.167Z,7.43
2023-02-11T14:07:39.943Z,7.46
2023-02-11T14:10:52.757Z,7.36
2023-02-11T14:13:24.978Z,6.96
2023-02-11T14:16:09.280Z,7.05
2023-02-11T14:18:36.034Z,7.16
2023-02-11T14:21:22.439Z,7.08
2023-02-11T14:23:52.598Z,7.25
2023-02-11T14:26:43.981Z,7.06
2023-02-11T14:29:41.940Z,7.26
2023-02-11T14:33:05.287Z,7.13
2023-02-11T14:35:47.436Z,7.21
2023-02-11T14:38:28.301Z,6.86
2023-02-11T14:40:59.440Z,7.23
2023-02-11T14:43:29.830Z,5.85
2023-02-11T14:45:56.863Z,7.45
2023-02-11T14:48:47.116Z,7.25
2023-02-11T14:51:18.581Z,7.40
2023-02-11T14:53:47.574Z,7.40
2023-02-11T14:56:33.734Z,7.47
2023-02-11T14:59:01.906Z,5.97
2023-02-11T15:01:34.980Z,7.31
2023-02-11T15:04:02.852Z,7.28
2023-02-11T15:06:32.941Z,7.35
2023-02-11T15:09:03.636Z,7.40
2023-02-11T15:11:34.608Z,7.45
2023-02-11T15:14:33.785Z,7.10
2023-02-11T15:17:02.188Z,7.31
2023-02-11T15:19:36.422Z,7.32
2023-02-11T15:22:18.060Z,7.26
2023-02-11T15:24:44.339Z,6.88
2023-02-11T15:27:17.793Z,7.48
2023-02-11T15:29:46.450Z,7.22
2023-02-11T15:32:17.989Z,6.81
2023-02-11T15:34:45.379Z,7.32
2023-02-11T15:37:22.971Z,7.51
2023-02-11T15:39:49.709Z,7.55
2023-02-11T15:42:25.204Z,7.45
2023-02-11T15:45:23.174Z,3.35
2023-02-11T15:48:10.707Z,7.11
2023-02-11T15:50:39.938Z,7.47
2023-02-11T15:53:29.029Z,7.07
2023-02-11T15:56:10.936Z,7.65
2023-02-11T15:58:38.367Z,7.51
2023-02-11T16:01:04.933Z,7.31
2023-02-11T16:03:31.987Z,7.54
2023-02-11T16:06:16.408Z,7.45
2023-02-11T16:08:42.846Z,7.41
2023-02-11T16:11:25.693Z,7.36
2023-02-11T16:13:51.764Z,7.33
2023-02-11T16:16:20.920Z,7.43
2023-02-11T16:19:03.381Z,7.53
2023-02-11T16:21:34.644Z,7.58
2023-02-11T16:24:01.137Z,7.76
2023-02-11T16:26:36.440Z,7.78
2023-02-11T16:29:26.848Z,7.63
2023-02-11T16:32:03.955Z,7.50
2023-02-11T16:34:30.041Z,7.45
2023-02-11T16:36:56.155Z,6.50
2023-02-11T16:39:22.260Z,7.77
2023-02-11T16:41:52.182Z,7.82
2023-02-11T16:44:18.647Z,7.93
2023-02-11T16:46:45.230Z,4.21
2023-02-11T16:49:39.587Z,7.91
2023-02-11T16:52:08.000Z,7.89
2023-02-11T16:54:34.114Z,7.88
2023-02-11T16:57:01.362Z,6.91
2023-02-11T16:59:27.440Z,7.79
2023-02-11T17:01:54.069Z,6.25
2023-02-11T17:04:25.721Z,6.54
2023-02-11T17:06:52.044Z,7.86
2023-02-11T17:09:21.377Z,7.81
2023-02-11T17:11:48.209Z,6.81
2023-02-11T17:14:14.568Z,7.80
2023-02-11T17:16:41.052Z,7.75
2023-02-11T17:19:08.400Z,7.96
2023-02-11T17:21:34.573Z,7.58
2023-02-11T17:24:00.801Z,7.90
2023-02-11T17:26:26.952Z,7.62
2023-02-11T17:28:53.060Z,7.57
2023-02-11T17:31:19.234Z,7.96
2023-02-11T17:33:45.427Z,8.04
2023-02-11T17:36:11.528Z,8.06
2023-02-11T17:38:37.689Z,7.72
2023-02-11T17:41:04.764Z,8.04
2023-02-11T17:43:31.128Z,8.10
2023-02-11T17:45:57.511Z,7.90
2023-02-11T17:48:24.202Z,7.89
2023-02-11T17:50:50.369Z,8.10
2023-02-11T17:53:16.422Z,7.97
2023-02-11T17:55:42.509Z,8.32
2023-02-11T17:58:08.591Z,8.33
2023-02-11T18:00:34.772Z,8.15
2023-02-11T18:03:02.287Z,8.25
2023-02-11T18:05:33.706Z,8.11
2023-02-11T18:07:59.840Z,7.64
2023-02-11T18:10:26.028Z,8.29
2023-02-11T18:12:52.133Z,8.34
2023-02-11T18:15:18.341Z,8.31
2023-02-11T18:17:44.449Z,8.30
2023-02-11T18:20:10.867Z,8.30
2023-02-11T18:22:39.464Z,7.70
2023-02-11T18:25:08.637Z,8.33
2023-02-11T18:27:34.812Z,8.33
2023-02-11T18:30:01.095Z,8.29
2023-02-11T18:32:27.214Z,8.34
2023-02-11T18:34:53.362Z,8.34
2023-02-11T18:37:19.558Z,8.37
2023-02-11T18:39:45.672Z,8.51
2023-02-11T18:42:11.789Z,8.25
2023-02-11T18:44:37.998Z,8.38
2023-02-11T18:47:04.196Z,8.48
2023-02-11T18:49:30.364Z,8.57
2023-02-11T18:51:58.084Z,8.51
2023-02-11T18:54:24.448Z,8.44
2023-02-11T18:56:50.576Z,8.58
2023-02-11T18:59:16.703Z,8.53
2023-02-11T19:01:46.036Z,8.66
2023-02-11T19:04:14.893Z,8.44
2023-02-11T19:06:40.999Z,8.68
2023-02-11T19:09:10.522Z,8.63
2023-02-11T19:11:48.150Z,8.59
2023-02-11T19:14:16.766Z,8.41
2023-02-11T19:16:43.759Z,8.54
2023-02-11T19:19:09.926Z,8.56
2023-02-11T19:21:36.307Z,8.56
2023-02-11T19:24:06.767Z,8.52
2023-02-11T19:26:33.675Z,3.92
2023-02-11T19:28:59.968Z,7.88
2023-02-11T19:31:26.145Z,8.04
2023-02-11T19:33:52.318Z,8.54
2023-02-11T19:36:20.589Z,8.46
2023-02-11T19:38:46.766Z,8.52
2023-02-11T19:41:18.277Z,8.44
2023-02-11T19:43:46.295Z,8.23
2023-02-11T19:46:12.442Z,8.34
2023-02-11T19:48:38.622Z,8.31
2023-02-11T19:51:10.795Z,7.65
2023-02-11T19:53:38.188Z,7.68
2023-02-11T19:56:06.963Z,8.28
2023-02-11T19:58:34.318Z,8.58
2023-02-11T20:01:22.518Z,8.54
2023-02-11T20:03:49.984Z,8.29
2023-02-11T20:06:22.657Z,8.34
2023-02-11T20:08:54.310Z,8.37
2023-02-11T20:11:21.869Z,7.98
2023-02-11T20:13:48.598Z,8.51
2023-02-11T20:16:20.296Z,8.58
2023-02-11T20:18:47.835Z,8.61
2023-02-11T20:21:17.012Z,8.44
2023-02-11T20:23:45.759Z,7.46
2023-02-11T20:26:14.676Z,8.43
2023-02-11T20:28:40.848Z,8.34
2023-02-11T20:31:07.737Z,7.82
2023-02-11T20:33:34.186Z,8.41
2023-02-11T20:36:04.409Z,8.05
2023-02-11T20:38:30.536Z,-1.03
2023-02-11T20:41:03.805Z,8.06
2023-02-11T20:43:30.361Z,8.23
2023-02-11T20:46:01.557Z,-12.81
2023-02-11T20:48:27.665Z,8.11
2023-02-11T20:50:54.327Z,8.21
2023-02-11T20:53:20.491Z,7.98
2023-02-11T20:55:46.640Z,8.12
2023-02-11T20:58:12.764Z,7.17
2023-02-11T21:00:38.861Z,8.38
2023-02-11T21:03:05.037Z,8.23
2023-02-11T21:05:31.211Z,8.09
2023-02-11T21:07:57.371Z,8.29
2023-02-11T21:10:23.575Z,8.28
2023-02-11T21:12:50.038Z,8.37
2023-02-11T21:15:16.228Z,7.62
2023-02-11T21:17:42.316Z,8.34
2023-02-11T21:20:09.374Z,8.23
2023-02-11T21:22:35.474Z,7.77
2023-02-11T21:25:01.588Z,7.95
2023-02-11T21:27:32.279Z,8.49
2023-02-11T21:30:01.610Z,8.13
2023-02-11T21:32:27.696Z,8.25
2023-02-11T21:34:53.770Z,8.35
2023-02-11T21:37:20.438Z,8.35
2023-02-11T21:39:46.571Z,7.95
2023-02-11T21:42:12.647Z,7.79
2023-02-11T21:44:38.880Z,6.85
2023-02-11T21:47:05.222Z,7.98
2023-02-11T21:49:31.328Z,8.07
2023-02-11T21:51:57.529Z,7.91
2023-02-11T21:54:25.111Z,7.87
2023-02-11T21:56:51.208Z,7.70
2023-02-11T21:59:17.333Z,7.73
2023-02-11T22:01:44.567Z,7.56
2023-02-11T22:04:11.110Z,6.08
2023-02-11T22:06:37.325Z,6.82
2023-02-11T22:09:05.513Z,7.03
2023-02-11T22:11:31.638Z,7.04
2023-02-11T22:13:58.462Z,7.16
2023-02-11T22:16:25.875Z,7.26
2023-02-11T22:18:52.208Z,7.32
2023-02-11T22:21:21.028Z,6.92
2023-02-11T22:23:47.181Z,7.45
2023-02-11T22:26:15.975Z,7.23
2023-02-11T22:28:42.497Z,7.22
2023-02-11T22:31:14.170Z,7.32
2023-02-11T22:33:40.916Z,6.23
2023-02-11T22:36:11.828Z,7.39
2023-02-11T22:38:37.900Z,6.67
2023-02-11T22:41:06.290Z,7.56
2023-02-11T22:43:32.377Z,7.58
2023-02-11T22:46:03.782Z,7.53
2023-02-11T22:48:30.132Z,7.63
2023-02-11T22:50:58.055Z,6.03
2023-02-11T22:53:24.849Z,7.20
2023-02-11T22:55:50.986Z,7.21
2023-02-11T22:58:18.120Z,7.31
2023-02-11T23:00:44.223Z,7.24
2023-02-11T23:03:12.128Z,7.45
2023-02-11T23:05:39.628Z,7.13
2023-02-11T23:08:07.545Z,7.45
2023-02-11T23:10:35.492Z,6.06
2023-02-11T23:13:03.724Z,7.58
2023-02-11T23:15:29.853Z,7.49
2023-02-11T23:17:56.008Z,7.61
2023-02-11T23:20:22.254Z,7.39
2023-02-11T23:22:48.571Z,7.62
2023-02-11T23:25:14.830Z,5.63
2023-02-11T23:27:40.982Z,7.61
2023-02-11T23:30:07.802Z,7.55
2023-02-11T23:32:36.724Z,6.09
2023-02-11T23:35:02.927Z,7.79
2023-02-11T23:37:29.028Z,7.45
2023-02-11T23:39:55.099Z,7.91
2023-02-11T23:42:21.180Z,7.82
2023-02-11T23:44:47.570Z,7.86
2023-02-11T23:47:13.640Z,7.85
2023-02-11T23:49:40.097Z,7.84
2023-02-11T23:52:06.264Z,7.88
2023-02-11T23:54:32.394Z,7.72
2023-02-11T23:56:58.466Z,7.76
2023-02-11T23:59:24.577Z,7.84
